Back to Top

Language: 

My Weather Underground Personal Weather Station Historical Data with Graphs...

Delerius Weather Station Historical Data
Daily Summary for January 6, 2017 Units:  Metric    English   Both
« Previous Day
Next Day »
Daily Weekly Monthly Yearly Custom
  High: Low: Average:
Temperature: 6.8 °C 1.1 °C 4.4 °C
Dew Point: 6.4 °C -1.6 °C 2.6 °C
Humidity: 97 % 80 % 88 %
Wind Speed: 19.3 km/h 0 km/h 7.1 km/h
Wind Gust: 24.1 km/h - -
Wind:- - SSW
Pressure: 1034.8 hPa 1028.7 hPa -
Precipitation: 0.76 mm    
Historical Graphs
 
 
Tabular Data for January 6, 2017
Time Temperature Dew Point Pressure Wind Wind Speed Wind Gust Humidity Rainfall Rate (Hourly) solar Conditions
00:00 1.1 °C -0.7 °C 1034.8 hPa South 1.6 km/h 12.9 km/h 88 % 0 mm 0 W/m2
00:05 1.2 °C -0.8 °C 1034.8 hPa South 1.6 km/h 12.9 km/h 87 % 0 mm 0 W/m2
00:15 1.3 °C -0.8 °C 1034.8 hPa South 3.2 km/h 6.4 km/h 86 % 0 mm 0 W/m2
00:20 1.3 °C -0.9 °C 1034.8 hPa SSW 4.8 km/h 8 km/h 85 % 0 mm 0 W/m2
00:25 1.4 °C -1 °C 1034.8 hPa SSW 4.8 km/h 8 km/h 84 % 0 mm 0 W/m2
00:30 1.4 °C -1.1 °C 1034.4 hPa SSW 4.8 km/h 4.8 km/h 83 % 0 mm 0 W/m2
00:35 1.5 °C -1.1 °C 1034.4 hPa SSW 4.8 km/h 11.3 km/h 83 % 0 mm 0 W/m2
00:40 1.6 °C -1 °C 1034.4 hPa SW 6.4 km/h 6.4 km/h 83 % 0 mm 0 W/m2
00:50 1.5 °C -1.2 °C 1034.4 hPa SSW 4.8 km/h 4.8 km/h 82 % 0 mm 0 W/m2
00:55 1.5 °C -1.2 °C 1034.4 hPa SSW 4.8 km/h 4.8 km/h 82 % 0 mm 0 W/m2
01:00 1.5 °C -1.2 °C 1034.4 hPa SSW 4.8 km/h 9.7 km/h 82 % 0 mm 0 W/m2
01:05 1.5 °C -1.2 °C 1034.4 hPa SW 8 km/h 12.9 km/h 82 % 0 mm 0 W/m2
01:10 1.6 °C -1.1 °C 1034.4 hPa SW 9.7 km/h 9.7 km/h 82 % 0 mm 0 W/m2
01:15 1.7 °C -1.2 °C 1034.4 hPa SSW 9.7 km/h 12.9 km/h 81 % 0 mm 0 W/m2
01:20 1.7 °C -1.2 °C 1034.4 hPa South 8 km/h 12.9 km/h 81 % 0 mm 0 W/m2
01:30 1.7 °C -1.2 °C 1034.4 hPa SSW 6.4 km/h 12.9 km/h 81 % 0 mm 0 W/m2
01:35 1.6 °C -1.3 °C 1034.4 hPa SW 4.8 km/h 12.9 km/h 81 % 0 mm 0 W/m2
01:40 1.5 °C -1.4 °C 1034.1 hPa SW 4.8 km/h 4.8 km/h 81 % 0 mm 0 W/m2
01:45 1.4 °C -1.4 °C 1034.1 hPa SW 4.8 km/h 8 km/h 81 % 0 mm 0 W/m2
01:50 1.5 °C -1.4 °C 1034.1 hPa SW 8 km/h 12.9 km/h 81 % 0 mm 0 W/m2
01:55 1.5 °C -1.4 °C 1034.1 hPa SW 8 km/h 12.9 km/h 81 % 0 mm 0 W/m2
02:00 1.5 °C -1.4 °C 1034.1 hPa South 6.4 km/h 12.9 km/h 81 % 0 mm 0 W/m2
02:10 1.5 °C -1.4 °C 1034.1 hPa South 6.4 km/h 12.9 km/h 81 % 0 mm 0 W/m2
02:15 1.4 °C -1.6 °C 1034.1 hPa SSW 4.8 km/h 12.9 km/h 80 % 0 mm 0 W/m2
02:20 1.5 °C -1.4 °C 1034.1 hPa SW 4.8 km/h 4.8 km/h 81 % 0 mm 0 W/m2
02:25 1.5 °C -1.6 °C 1033.7 hPa SW 6.4 km/h 6.4 km/h 80 % 0 mm 0 W/m2
02:30 1.5 °C -1.6 °C 1033.7 hPa SW 6.4 km/h 12.9 km/h 80 % 0 mm 0 W/m2
02:35 1.5 °C -1.6 °C 1033.7 hPa SSW 6.4 km/h 12.9 km/h 80 % 0 mm 0 W/m2
02:45 1.6 °C -1.3 °C 1033.7 hPa SSW 6.4 km/h 8 km/h 81 % 0 mm 0 W/m2
02:50 1.6 °C -1.3 °C 1033.7 hPa SSW 8 km/h 12.9 km/h 81 % 0 mm 0 W/m2
02:55 1.6 °C -1.3 °C 1033.7 hPa SSW 8 km/h 12.9 km/h 81 % 0 mm 0 W/m2
03:00 1.5 °C -1.4 °C 1033.7 hPa SW 8 km/h 12.9 km/h 81 % 0 mm 0 W/m2
03:05 1.6 °C -1.3 °C 1033.7 hPa SSW 9.7 km/h 12.9 km/h 81 % 0 mm 0 W/m2
03:10 1.6 °C -1.3 °C 1033.7 hPa South 8 km/h 8 km/h 81 % 0 mm 0 W/m2
03:20 1.6 °C -1.1 °C 1033.7 hPa SSW 6.4 km/h 12.9 km/h 82 % 0 mm 0 W/m2
03:25 1.7 °C -1.1 °C 1033.7 hPa WSW 4.8 km/h 12.9 km/h 82 % 0 mm 0 W/m2
03:30 1.7 °C -1 °C 1033.7 hPa SW 6.4 km/h 6.4 km/h 82 % 0 mm 0 W/m2
03:35 1.8 °C -0.9 °C 1033.7 hPa SSW 8 km/h 8 km/h 82 % 0 mm 0 W/m2
03:40 1.9 °C -0.8 °C 1033.7 hPa SSW 8 km/h 8 km/h 82 % 0 mm 0 W/m2
03:45 1.9 °C -0.8 °C 1033.7 hPa SW 8 km/h 12.9 km/h 82 % 0 mm 0 W/m2
03:55 2 °C -0.8 °C 1033.4 hPa SW 8 km/h 9.7 km/h 82 % 0 mm 0 W/m2
04:00 2.1 °C -0.7 °C 1033.4 hPa SW 9.7 km/h 12.9 km/h 82 % 0 mm 0 W/m2
04:05 2.2 °C -0.6 °C 1033.4 hPa SSW 11.3 km/h 12.9 km/h 82 % 0 mm 0 W/m2
04:10 2.3 °C -0.5 °C 1033.4 hPa SW 9.7 km/h 16.1 km/h 82 % 0 mm 0 W/m2
04:15 2.4 °C -0.6 °C 1033.4 hPa SW 9.7 km/h 16.1 km/h 81 % 0 mm 0 W/m2
04:20 2.4 °C -0.5 °C 1033.4 hPa SW 6.4 km/h 6.4 km/h 81 % 0 mm 0 W/m2
04:30 2.4 °C -0.4 °C 1033.1 hPa West 3.2 km/h 12.9 km/h 82 % 0 mm 0 W/m2
04:35 2.4 °C -0.4 °C 1033.1 hPa WSW 6.4 km/h 12.9 km/h 82 % 0 mm 0 W/m2
04:40 2.4 °C -0.3 °C 1033.1 hPa SW 6.4 km/h 12.9 km/h 82 % 0 mm 0 W/m2
04:50 2.6 °C -0.2 °C 1033.1 hPa SW 9.7 km/h 12.9 km/h 82 % 0 mm 0 W/m2
04:55 2.7 °C -0.1 °C 1032.7 hPa SSW 11.3 km/h 12.9 km/h 82 % 0 mm 0 W/m2
05:00 2.8 °C 0 °C 1032.7 hPa SW 9.7 km/h 12.9 km/h 82 % 0 mm 0 W/m2
05:10 3.1 °C 0.3 °C 1032.7 hPa SW 12.9 km/h 12.9 km/h 82 % 0 mm 0 W/m2
05:15 3.1 °C 0.3 °C 1032.7 hPa SW 12.9 km/h 12.9 km/h 82 % 0 mm 0 W/m2
05:20 3.2 °C 0.4 °C 1032.7 hPa SSW 11.3 km/h 17.7 km/h 82 % 0 mm 0 W/m2
05:25 3.3 °C 0.5 °C 1032.7 hPa SSW 11.3 km/h 20.9 km/h 82 % 0 mm 0 W/m2
05:30 3.4 °C 0.6 °C 1032.7 hPa SSW 12.9 km/h 16.1 km/h 82 % 0 mm 0 W/m2
05:35 3.6 °C 0.8 °C 1032.7 hPa SW 11.3 km/h 16.1 km/h 82 % 0 mm 0 W/m2
05:45 3.6 °C 0.8 °C 1032.7 hPa WSW 4.8 km/h 12.9 km/h 82 % 0 mm 0 W/m2
05:50 3.6 °C 0.8 °C 1032.4 hPa WSW 4.8 km/h 12.9 km/h 82 % 0 mm 0 W/m2
05:55 3.7 °C 0.9 °C 1032.4 hPa SW 6.4 km/h 12.9 km/h 82 % 0 mm 0 W/m2
06:00 3.7 °C 0.9 °C 1032.4 hPa SW 9.7 km/h 9.7 km/h 82 % 0 mm 0 W/m2
06:05 3.8 °C 1 °C 1032.7 hPa WSW 11.3 km/h 11.3 km/h 82 % 0 mm 0 W/m2
06:10 3.8 °C 1.1 °C 1032.7 hPa SW 9.7 km/h 9.7 km/h 82 % 0 mm 0 W/m2
06:15 3.9 °C 1.1 °C 1032.7 hPa WSW 8 km/h 12.9 km/h 82 % 0 mm 0 W/m2
06:20 3.9 °C 1.1 °C 1032.7 hPa WSW 6.4 km/h 12.9 km/h 82 % 0 mm 0 W/m2
06:30 3.9 °C 1.2 °C 1032.7 hPa SSW 8 km/h 12.9 km/h 82 % 0 mm 0 W/m2
06:35 3.9 °C 1.1 °C 1032.7 hPa WSW 8 km/h 12.9 km/h 82 % 0 mm 0 W/m2
06:40 3.9 °C 1.3 °C 1032.7 hPa SSW 8 km/h 8 km/h 83 % 0 mm 0 W/m2
06:45 3.9 °C 1.3 °C 1032.7 hPa SW 8 km/h 9.7 km/h 83 % 0 mm 0 W/m2
06:50 3.9 °C 1.3 °C 1033.1 hPa SSW 8 km/h 12.9 km/h 83 % 0 mm 0 W/m2
06:55 4 °C 1.4 °C 1032.7 hPa SW 9.7 km/h 12.9 km/h 83 % 0 mm 0 W/m2
07:05 4.1 °C 1.5 °C 1032.7 hPa SW 9.7 km/h 12.9 km/h 83 % 0 mm 0 W/m2
07:15 4.2 °C 1.6 °C 1032.7 hPa SW 8 km/h 12.9 km/h 83 % 0 mm 0 W/m2
07:20 4.2 °C 1.6 °C 1032.7 hPa SW 8 km/h 16.1 km/h 83 % 0 mm 0 W/m2
07:25 4.3 °C 1.7 °C 1032.7 hPa SSW 9.7 km/h 16.1 km/h 83 % 0 mm 0 W/m2
07:30 4.4 °C 1.6 °C 1032.7 hPa SSW 12.9 km/h 16.1 km/h 82 % 0 mm 0 W/m2
07:35 4.4 °C 1.6 °C 1032.7 hPa SW 12.9 km/h 16.1 km/h 82 % 0 mm 0 W/m2
07:40 4.4 °C 1.6 °C 1032.7 hPa South 12.9 km/h 22.5 km/h 82 % 0 mm 0 W/m2
07:50 4.4 °C 1.4 °C 1032.7 hPa SW 17.7 km/h 19.3 km/h 81 % 0 mm 0 W/m2
07:55 4.5 °C 1.5 °C 1032.4 hPa SSE 16.1 km/h 19.3 km/h 81 % 0 mm 0 W/m2
08:00 4.4 °C 1.4 °C 1032.4 hPa SSW 16.1 km/h 22.5 km/h 81 % 0 mm 0 W/m2
08:05 4.4 °C 1.4 °C 1032.4 hPa SSW 14.5 km/h 22.5 km/h 81 % 0 mm 0 W/m2
08:10 4.4 °C 1.4 °C 1032.4 hPa SSW 11.3 km/h 14.5 km/h 81 % 0 mm 0 W/m2
08:15 4.5 °C 1.5 °C 1032.4 hPa SSW 9.7 km/h 14.5 km/h 81 % 0 mm 0 W/m2
08:25 4.6 °C 1.6 °C 1032.4 hPa South 6.4 km/h 12.9 km/h 81 % 0 mm 0 W/m2
08:35 4.6 °C 1.4 °C 1032.7 hPa SSW 9.7 km/h 12.9 km/h 80 % 0 mm 5 W/m2
08:40 4.7 °C 1.7 °C 1032.4 hPa South 9.7 km/h 9.7 km/h 81 % 0 mm 5 W/m2
08:45 4.6 °C 1.6 °C 1032.4 hPa South 8 km/h 11.3 km/h 81 % 0 mm 7 W/m2
08:50 4.6 °C 1.7 °C 1032.4 hPa SSW 8 km/h 19.3 km/h 82 % 0 mm 9 W/m2
09:00 4.5 °C 1.9 °C 1032.4 hPa SSE 11.3 km/h 12.9 km/h 83 % 0 mm 12 W/m2
09:05 4.4 °C 1.8 °C 1032.4 hPa SSW 11.3 km/h 12.9 km/h 83 % 0 mm 11 W/m2
09:10 4.4 °C 2 °C 1032.4 hPa South 9.7 km/h 9.7 km/h 84 % 0 mm 12 W/m2
09:15 4.4 °C 2 °C 1032.4 hPa SSW 8 km/h 12.9 km/h 84 % 0 mm 12 W/m2
09:20 4.4 °C 2 °C 1032.4 hPa SSW 6.4 km/h 12.9 km/h 84 % 0 mm 12 W/m2
09:25 4.4 °C 2 °C 1032.4 hPa SSW 8 km/h 12.9 km/h 84 % 0 mm 14 W/m2
09:35 4.4 °C 2 °C 1032.4 hPa South 9.7 km/h 16.1 km/h 84 % 0 mm 14 W/m2
09:40 4.5 °C 2.1 °C 1032.4 hPa SSW 8 km/h 12.9 km/h 84 % 0 mm 16 W/m2
09:45 4.6 °C 2.1 °C 1032.4 hPa SSW 9.7 km/h 12.9 km/h 84 % 0 mm 18 W/m2
09:50 4.6 °C 2.1 °C 1032.4 hPa SSW 11.3 km/h 11.3 km/h 84 % 0 mm 18 W/m2
09:55 4.7 °C 2.2 °C 1032.4 hPa SW 11.3 km/h 12.9 km/h 84 % 0 mm 21 W/m2
10:00 4.8 °C 2.1 °C 1032.4 hPa SSW 12.9 km/h 12.9 km/h 83 % 0 mm 19 W/m2
10:05 4.8 °C 2.1 °C 1032.4 hPa SSW 12.9 km/h 12.9 km/h 83 % 0 mm 21 W/m2
10:10 4.8 °C 2.1 °C 1032.4 hPa SW 12.9 km/h 14.5 km/h 83 % 0 mm 19 W/m2
10:15 4.8 °C 2.1 °C 1032.4 hPa SSW 12.9 km/h 14.5 km/h 83 % 0 mm 18 W/m2
10:25 4.8 °C 2 °C 1032.4 hPa SSW 19.3 km/h 20.9 km/h 82 % 0 mm 19 W/m2
10:30 4.7 °C 2.1 °C 1032.4 hPa SSW 19.3 km/h 20.9 km/h 83 % 0 mm 21 W/m2
10:35 4.6 °C 1.9 °C 1032.1 hPa SW 19.3 km/h 20.9 km/h 83 % 0 mm 25 W/m2
10:40 4.7 °C 2 °C 1032.1 hPa SSW 19.3 km/h 19.3 km/h 83 % 0 mm 28 W/m2
10:45 4.7 °C 2 °C 1032.1 hPa SW 17.7 km/h 20.9 km/h 83 % 0 mm 33 W/m2
10:50 4.7 °C 2 °C 1032.1 hPa SW 16.1 km/h 16.1 km/h 83 % 0 mm 32 W/m2
11:00 4.6 °C 2.1 °C 1032.1 hPa SSW 12.9 km/h 12.9 km/h 84 % 0 mm 23 W/m2
11:05 4.6 °C 2.1 °C 1031.7 hPa SW 12.9 km/h 12.9 km/h 84 % 0 mm 21 W/m2
11:10 4.6 °C 2.3 °C 1031.7 hPa SSE 14.5 km/h 14.5 km/h 85 % 0 mm 21 W/m2
11:15 4.6 °C 2.3 °C 1031.7 hPa SSW 14.5 km/h 14.5 km/h 85 % 0 mm 19 W/m2
11:20 4.6 °C 2.3 °C 1031.7 hPa SSW 12.9 km/h 14.5 km/h 85 % 0 mm 21 W/m2
11:25 4.6 °C 2.4 °C 1031.7 hPa South 12.9 km/h 14.5 km/h 86 % 0 mm 25 W/m2
11:35 4.8 °C 2.8 °C 1031.4 hPa SSW 12.9 km/h 16.1 km/h 87 % 0 mm 30 W/m2
11:45 4.9 °C 3.1 °C 1031.4 hPa SSW 14.5 km/h 17.7 km/h 88 % 0 mm 32 W/m2
11:50 4.9 °C 3.1 °C 1031.4 hPa SSW 12.9 km/h 12.9 km/h 88 % 0 mm 40 W/m2
11:55 5 °C 3.3 °C 1031.4 hPa SW 12.9 km/h 12.9 km/h 89 % 0 mm 49 W/m2
12:00 5.1 °C 3.4 °C 1031 hPa SW 12.9 km/h 12.9 km/h 89 % 0 mm 49 W/m2
12:05 5.1 °C 3.4 °C 1031 hPa South 11.3 km/h 16.1 km/h 89 % 0 mm 47 W/m2
12:10 5.1 °C 3.4 °C 1031 hPa SSW 12.9 km/h 12.9 km/h 89 % 0 mm 51 W/m2
12:20 4.9 °C 3.2 °C 1031 hPa SSW 11.3 km/h 14.5 km/h 89 % 0 mm 46 W/m2
12:25 4.8 °C 3.1 °C 1031 hPa SSW 9.7 km/h 14.5 km/h 89 % 0 mm 47 W/m2
12:30 4.6 °C 3.1 °C 1031 hPa South 11.3 km/h 11.3 km/h 90 % 0 mm 46 W/m2
12:35 4.6 °C 3.2 °C 1031 hPa South 11.3 km/h 12.9 km/h 91 % 0 mm 40 W/m2
12:40 4.6 °C 3.2 °C 1031 hPa South 9.7 km/h 9.7 km/h 91 % 0 mm 35 W/m2
12:45 4.6 °C 3.4 °C 1030.7 hPa South 9.7 km/h 12.9 km/h 92 % 0 mm 37 W/m2
12:50 4.6 °C 3.4 °C 1030.7 hPa North 11.3 km/h 12.9 km/h 92 % 0 mm 37 W/m2
13:00 4.6 °C 3.4 °C 1030.4 hPa SSW 11.3 km/h 20.9 km/h 92 % 0 mm 44 W/m2
13:05 4.6 °C 3.6 °C 1030.4 hPa South 11.3 km/h 20.9 km/h 93 % 0 mm 42 W/m2
13:10 4.7 °C 3.6 °C 1030.4 hPa SSW 8 km/h 8 km/h 93 % 0 mm 35 W/m2
13:15 4.7 °C 3.7 °C 1030.4 hPa South 8 km/h 12.9 km/h 93 % 0 mm 32 W/m2
13:20 4.8 °C 3.7 °C 1030.4 hPa SSW 8 km/h 12.9 km/h 93 % 0 mm 26 W/m2
13:25 4.8 °C 3.8 °C 1030 hPa SSW 9.7 km/h 12.9 km/h 93 % 0 mm 30 W/m2
13:35 5 °C 3.9 °C 1030 hPa South 12.9 km/h 17.7 km/h 93 % 0 mm 30 W/m2
13:40 5 °C 3.8 °C 1030 hPa SSW 11.3 km/h 19.3 km/h 92 % 0 mm 28 W/m2
13:45 5.1 °C 4 °C 1030 hPa SSW 11.3 km/h 19.3 km/h 93 % 0 mm 26 W/m2
13:50 5.1 °C 3.9 °C 1030 hPa SW 11.3 km/h 11.3 km/h 92 % 0 mm 30 W/m2
13:55 5.1 °C 4 °C 1030 hPa SSW 11.3 km/h 14.5 km/h 93 % 0 mm 28 W/m2
14:00 5.1 °C 4.1 °C 1030 hPa SSW 11.3 km/h 11.3 km/h 93 % 1.02 mm 28 W/m2
14:10 5.2 °C 4.1 °C 1030 hPa South 9.7 km/h 9.7 km/h 93 % 1.02 mm 23 W/m2
14:15 5.2 °C 4.1 °C 1030 hPa SSW 8 km/h 12.9 km/h 93 % 0 mm 21 W/m2
14:20 5.2 °C 4.2 °C 1030 hPa SSW 8 km/h 12.9 km/h 93 % 0 mm 19 W/m2
14:25 5.3 °C 4.2 °C 1030 hPa SSW 12.9 km/h 20.9 km/h 93 % 0 mm 18 W/m2
14:30 5.3 °C 4.1 °C 1030 hPa SSW 14.5 km/h 24.1 km/h 92 % 0 mm 19 W/m2
14:40 5.3 °C 4.1 °C 1030 hPa SSW 11.3 km/h 12.9 km/h 92 % 0 mm 19 W/m2
14:45 5.3 °C 4.1 °C 1030 hPa SSW 8 km/h 12.9 km/h 92 % 0 mm 16 W/m2
14:50 5.3 °C 4.1 °C 1030 hPa SSW 6.4 km/h 12.9 km/h 92 % 0 mm 12 W/m2
14:55 5.3 °C 4.1 °C 1029.7 hPa SSW 6.4 km/h 12.9 km/h 92 % 0 mm 12 W/m2
15:00 5.3 °C 4.2 °C 1029.7 hPa South 8 km/h 12.9 km/h 93 % 0 mm 19 W/m2
15:10 5.4 °C 4.3 °C 1029.7 hPa SSW 6.4 km/h 12.9 km/h 93 % 0 mm 11 W/m2
15:15 5.4 °C 4.3 °C 1029.7 hPa SSW 4.8 km/h 12.9 km/h 93 % 0 mm 12 W/m2
15:20 5.4 °C 4.4 °C 1029.7 hPa South 6.4 km/h 6.4 km/h 93 % 0 mm 16 W/m2
15:25 5.5 °C 4.4 °C 1029.3 hPa SW 9.7 km/h 11.3 km/h 93 % 0 mm 14 W/m2
15:30 5.6 °C 4.5 °C 1029.3 hPa SSW 11.3 km/h 12.9 km/h 93 % 0 mm 14 W/m2
15:35 5.6 °C 4.6 °C 1029.7 hPa SSW 9.7 km/h 12.9 km/h 93 % 0 mm 16 W/m2
15:45 5.7 °C 4.7 °C 1029.7 hPa SW 8 km/h 12.9 km/h 93 % 0 mm 9 W/m2
15:50 5.8 °C 4.7 °C 1029.7 hPa South 9.7 km/h 14.5 km/h 93 % 0 mm 7 W/m2
15:55 5.8 °C 4.8 °C 1029.7 hPa South 11.3 km/h 14.5 km/h 93 % 0 mm 0 W/m2
16:00 5.9 °C 4.8 °C 1029.7 hPa South 9.7 km/h 12.9 km/h 93 % 0 mm 0 W/m2
16:05 5.9 °C 4.7 °C 1029.3 hPa South 9.7 km/h 12.9 km/h 92 % 0 mm 0 W/m2
16:10 5.9 °C 4.7 °C 1029.7 hPa SSW 8 km/h 8 km/h 92 % 0 mm 0 W/m2
16:20 5.9 °C 4.7 °C 1029.7 hPa South 8 km/h 8 km/h 92 % 0 mm 0 W/m2
16:25 5.9 °C 4.7 °C 1029.7 hPa SSW 6.4 km/h 12.9 km/h 92 % 0 mm 0 W/m2
16:30 6 °C 4.8 °C 1029.7 hPa SSW 6.4 km/h 12.9 km/h 92 % 0 mm 0 W/m2
16:35 6 °C 4.8 °C 1029.3 hPa South 6.4 km/h 12.9 km/h 92 % 0 mm 0 W/m2
16:40 6 °C 4.8 °C 1029.7 hPa SSW 8 km/h 8 km/h 92 % 0 mm 0 W/m2
16:45 6.1 °C 4.8 °C 1029.7 hPa SW 4.8 km/h 9.7 km/h 92 % 0 mm 0 W/m2
16:50 6.1 °C 4.8 °C 1029.7 hPa South 4.8 km/h 4.8 km/h 92 % 0 mm 0 W/m2
16:55 6.1 °C 4.8 °C 1029.3 hPa South 3.2 km/h 12.9 km/h 92 % 0 mm 0 W/m2
17:05 6.1 °C 5 °C 1029.3 hPa SSW 1.6 km/h 12.9 km/h 93 % 0 mm 0 W/m2
17:10 6.1 °C 5.1 °C 1029.3 hPa SW 4.8 km/h 12.9 km/h 93 % 0 mm 0 W/m2
17:15 6.1 °C 5 °C 1029 hPa SW 6.4 km/h 12.9 km/h 93 % 0 mm 0 W/m2
17:20 6.1 °C 5 °C 1029 hPa SW 4.8 km/h 4.8 km/h 93 % 0 mm 0 W/m2
17:30 6 °C 4.9 °C 1029.3 hPa SW 1.6 km/h 1.6 km/h 93 % 0 mm 0 W/m2
17:35 6 °C 4.9 °C 1029.3 hPa SW 1.6 km/h 12.9 km/h 93 % 0 mm 0 W/m2
17:40 6 °C 4.9 °C 1029.3 hPa Calm   12.9 km/h 93 % 0 mm 0 W/m2
17:45 6 °C 5.1 °C 1029.3 hPa SW 1.6 km/h 12.9 km/h 94 % 0 mm 0 W/m2
17:50 6.1 °C 5.2 °C 1029.3 hPa SW 1.6 km/h 1.6 km/h 94 % 0 mm 0 W/m2
17:55 6 °C 5.1 °C 1029.3 hPa Calm   12.9 km/h 94 % 0 mm 0 W/m2
18:05 6 °C 5.1 °C 1029.3 hPa SW 1.6 km/h 12.9 km/h 94 % 0 mm 0 W/m2
18:10 6 °C 5.1 °C 1029.3 hPa SW 3.2 km/h 3.2 km/h 94 % 0 mm 0 W/m2
18:15 5.9 °C 5.1 °C 1029.3 hPa SW 3.2 km/h 12.9 km/h 94 % 0 mm 0 W/m2
18:20 5.9 °C 4.9 °C 1029 hPa SW 3.2 km/h 12.9 km/h 93 % 0 mm 0 W/m2
18:25 5.9 °C 4.8 °C 1029 hPa SW 3.2 km/h 12.9 km/h 93 % 0 mm 0 W/m2
18:35 5.8 °C 4.9 °C 1028.7 hPa West 8 km/h 12.9 km/h 94 % 0 mm 0 W/m2
18:40 5.7 °C 4.8 °C 1028.7 hPa WNW 8 km/h 12.9 km/h 94 % 0 mm 0 W/m2
18:45 5.8 °C 4.9 °C 1028.7 hPa NNW 6.4 km/h 12.9 km/h 94 % 0 mm 0 W/m2
18:50 5.8 °C 5.1 °C 1028.7 hPa NNW 4.8 km/h 4.8 km/h 95 % 0 mm 0 W/m2
18:55 5.9 °C 5.2 °C 1028.7 hPa NNW 1.6 km/h 12.9 km/h 95 % 0 mm 0 W/m2
19:00 5.8 °C 4.9 °C 1028.7 hPa Calm   12.9 km/h 94 % 0 mm 0 W/m2
19:10 5.7 °C 4.8 °C 1028.7 hPa Calm   12.9 km/h 94 % 0 mm 0 W/m2
19:15 5.6 °C 4.9 °C 1028.7 hPa Calm   12.9 km/h 95 % 0 mm 0 W/m2
19:20 5.6 °C 4.9 °C 1028.7 hPa Calm   12.9 km/h 95 % 0 mm 0 W/m2
19:25 5.6 °C 4.8 °C 1028.7 hPa Calm   12.9 km/h 95 % 0 mm 0 W/m2
19:30 5.4 °C 4.6 °C 1029 hPa Calm   12.9 km/h 94 % 0 mm 0 W/m2
19:40 5.3 °C 4.6 °C 1029 hPa NNW 1.6 km/h 1.6 km/h 95 % 0 mm 0 W/m2
19:45 5.2 °C 4.5 °C 1029 hPa Calm   12.9 km/h 95 % 0 mm 0 W/m2
19:50 5.2 °C 4.4 °C 1029 hPa Calm   12.9 km/h 95 % 0 mm 0 W/m2
19:55 5.1 °C 4.4 °C 1028.7 hPa Calm   12.9 km/h 95 % 0 mm 0 W/m2
20:00 5.1 °C 4.3 °C 1028.7 hPa NNW 1.6 km/h 1.6 km/h 95 % 0 mm 0 W/m2
20:10 5.1 °C 4.3 °C 1029 hPa Calm   12.9 km/h 95 % 0 mm 0 W/m2
20:15 5.2 °C 4.6 °C 1029 hPa Calm   12.9 km/h 96 % 0 mm 0 W/m2
20:20 5.2 °C 4.6 °C 1029.3 hPa ESE 1.6 km/h 12.9 km/h 96 % 0 mm 0 W/m2
20:30 5.2 °C 4.6 °C 1029 hPa East 1.6 km/h 1.6 km/h 96 % 0 mm 0 W/m2
20:35 5.3 °C 4.7 °C 1029 hPa Calm   12.9 km/h 96 % 0 mm 0 W/m2
20:40 5.4 °C 4.8 °C 1029 hPa Calm   12.9 km/h 96 % 0 mm 0 W/m2
20:50 5.7 °C 5.1 °C 1029 hPa East 1.6 km/h 12.9 km/h 96 % 0 mm 0 W/m2
20:55 5.7 °C 5.1 °C 1029 hPa East 1.6 km/h 12.9 km/h 96 % 0 mm 0 W/m2
21:00 5.8 °C 5.2 °C 1029 hPa Calm   12.9 km/h 96 % 0 mm 0 W/m2
21:05 5.8 °C 5.2 °C 1029 hPa Calm   12.9 km/h 96 % 0 mm 0 W/m2
21:10 5.9 °C 5.3 °C 1029 hPa Calm   12.9 km/h 96 % 0 mm 0 W/m2
21:20 6.1 °C 5.5 °C 1029.3 hPa Calm   12.9 km/h 96 % 0 mm 0 W/m2
21:25 6.1 °C 5.4 °C 1029.3 hPa Calm   12.9 km/h 96 % 0 mm 0 W/m2
21:30 5.9 °C 5.3 °C 1029.3 hPa Calm   12.9 km/h 96 % 0 mm 0 W/m2
21:35 5.8 °C 5.2 °C 1029.3 hPa Calm   12.9 km/h 96 % 0 mm 0 W/m2
21:40 5.7 °C 4.9 °C 1029.3 hPa Calm   12.9 km/h 95 % 0 mm 0 W/m2
21:45 5.6 °C 5 °C 1029.3 hPa Calm   12.9 km/h 96 % 0 mm 0 W/m2
21:50 5.7 °C 5.1 °C 1029.3 hPa Calm   12.9 km/h 96 % 0 mm 0 W/m2
22:00 5.7 °C 5.1 °C 1029.3 hPa East 1.6 km/h 1.6 km/h 96 % 0 mm 0 W/m2
22:05 5.6 °C 4.9 °C 1029.3 hPa Calm   12.9 km/h 96 % 0 mm 0 W/m2
22:10 5.6 °C 5 °C 1029.7 hPa Calm   12.9 km/h 96 % 0 mm 0 W/m2
22:15 5.6 °C 5 °C 1029.7 hPa Calm   12.9 km/h 96 % 0 mm 0 W/m2
22:20 5.6 °C 5 °C 1029.7 hPa Calm   12.9 km/h 96 % 0 mm 0 W/m2
22:25 5.6 °C 4.9 °C 1029.7 hPa Calm   12.9 km/h 96 % 0 mm 0 W/m2
22:35 5.6 °C 5 °C 1029.7 hPa Calm   12.9 km/h 96 % 0 mm 0 W/m2
22:40 5.7 °C 5.1 °C 1029.7 hPa Calm   12.9 km/h 96 % 0 mm 0 W/m2
22:45 5.6 °C 5 °C 1029.7 hPa Calm   12.9 km/h 96 % 0 mm 0 W/m2
22:50 5.7 °C 5.1 °C 1029.7 hPa Calm   12.9 km/h 96 % 0 mm 0 W/m2
23:00 5.8 °C 5.3 °C 1029.7 hPa Calm   12.9 km/h 97 % 0 mm 0 W/m2
23:05 5.8 °C 5.4 °C 1029.7 hPa Calm   12.9 km/h 97 % 0 mm 0 W/m2
23:10 5.9 °C 5.4 °C 1029.7 hPa Calm   12.9 km/h 97 % 0 mm 0 W/m2
23:15 5.9 °C 5.5 °C 1029.7 hPa Calm   12.9 km/h 97 % 0 mm 0 W/m2
23:20 6 °C 5.6 °C 1029.7 hPa Calm   12.9 km/h 97 % 0 mm 0 W/m2
23:25 6.1 °C 5.6 °C 1029.7 hPa Calm   12.9 km/h 97 % 0 mm 0 W/m2
23:35 6.3 °C 5.8 °C 1029.7 hPa Calm   12.9 km/h 97 % 0 mm 0 W/m2
23:45 6.7 °C 6.3 °C 1029.3 hPa WNW 4.8 km/h 12.9 km/h 97 % 0 mm 0 W/m2
23:50 6.8 °C 6.4 °C 1029.3 hPa WNW 1.6 km/h 1.6 km/h 97 % 0 mm 0 W/m2
23:55 6.8 °C 6.4 °C 1029.3 hPa Calm   12.9 km/h 97 % 0 mm 0 W/m2
Delerius-Weather
Compliments of Weather Underground - 2 mb

Data updates at regular intervals.